createdAt,value
2023-05-10T00:00:40.601Z,59.29
2023-05-10T00:10:53.560Z,59.58
2023-05-10T00:21:01.325Z,60.18
2023-05-10T00:31:04.372Z,60.30
2023-05-10T00:41:06.332Z,60.09
2023-05-10T00:51:15.166Z,61.07
2023-05-10T01:01:23.117Z,61.25
2023-05-10T01:11:25.505Z,61.64
2023-05-10T01:21:44.119Z,61.60
2023-05-10T01:32:04.101Z,61.70
2023-05-10T01:42:28.320Z,62.28
2023-05-10T01:52:42.282Z,61.80
2023-05-10T02:02:50.199Z,62.04
2023-05-10T02:12:55.162Z,62.48
2023-05-10T02:22:59.563Z,62.52
2023-05-10T02:33:05.651Z,63.60
2023-05-10T02:43:13.347Z,64.28
2023-05-10T02:53:20.445Z,64.18
2023-05-10T03:03:22.308Z,64.69
2023-05-10T03:13:37.843Z,64.70
2023-05-10T03:23:47.219Z,63.92
2023-05-10T03:33:53.181Z,61.63
2023-05-10T03:43:56.255Z,60.20
2023-05-10T03:53:59.272Z,58.57
2023-05-10T04:04:01.375Z,56.28
2023-05-10T04:14:03.409Z,56.08
2023-05-10T04:24:09.490Z,54.97
2023-05-10T04:34:17.421Z,54.03
2023-05-10T04:44:22.356Z,50.84
2023-05-10T04:54:24.377Z,50.91
2023-05-10T05:04:27.360Z,50.12
2023-05-10T05:14:36.483Z,47.66
2023-05-10T05:24:39.476Z,47.45
2023-05-10T05:34:41.545Z,46.53
2023-05-10T05:44:44.781Z,44.43
2023-05-10T05:54:57.886Z,44.84
2023-05-10T06:05:07.348Z,42.53
2023-05-10T06:15:10.087Z,43.22
2023-05-10T06:25:20.190Z,40.67
2023-05-10T06:35:36.080Z,39.95
2023-05-10T06:45:38.093Z,39.62
2023-05-10T06:55:41.178Z,39.43
2023-05-10T07:05:43.624Z,35.63
2023-05-10T07:15:47.632Z,35.21
2023-05-10T07:25:59.581Z,32.45
2023-05-10T07:36:01.644Z,31.87
2023-05-10T07:46:04.031Z,31.64
2023-05-10T07:56:27.716Z,30.86
2023-05-10T08:06:36.468Z,27.53
2023-05-10T08:16:44.611Z,27.07
2023-05-10T08:26:49.780Z,27.50
2023-05-10T08:36:53.887Z,28.93
2023-05-10T08:46:56.836Z,28.33
2023-05-10T08:56:59.335Z,26.85
2023-05-10T09:07:01.416Z,26.70
2023-05-10T09:17:06.133Z,27.61
2023-05-10T09:27:11.696Z,27.44
2023-05-10T09:37:13.713Z,28.12
2023-05-10T09:47:22.458Z,29.19
2023-05-10T09:57:26.743Z,29.55
2023-05-10T10:07:36.624Z,28.92
2023-05-10T10:17:43.558Z,28.79
2023-05-10T10:27:53.439Z,29.05
2023-05-10T10:37:55.699Z,27.86
2023-05-10T10:48:23.791Z,28.30
2023-05-10T10:58:36.423Z,30.69
2023-05-10T11:08:45.211Z,29.12
2023-05-10T11:19:10.678Z,29.73
2023-05-10T11:29:21.447Z,29.72
2023-05-10T11:39:30.884Z,30.78
2023-05-10T11:49:32.940Z,29.86
2023-05-10T11:59:34.909Z,28.73
2023-05-10T12:09:44.374Z,30.36
2023-05-10T12:19:46.740Z,30.17
2023-05-10T12:40:18.509Z,30.33
2023-05-10T12:50:21.619Z,29.52
2023-05-10T13:00:23.545Z,28.68
2023-05-10T13:10:26.481Z,30.96
2023-05-10T13:20:29.647Z,28.55
2023-05-10T13:30:32.704Z,28.87
2023-05-10T13:40:35.188Z,28.89
2023-05-10T13:50:37.358Z,29.10
2023-05-10T14:00:40.364Z,30.43
2023-05-10T14:10:44.425Z,28.31
2023-05-10T14:20:46.612Z,29.27
2023-05-10T14:30:48.585Z,28.95
2023-05-10T14:40:50.863Z,29.23
2023-05-10T14:50:53.785Z,28.52
2023-05-10T15:00:55.848Z,29.15
2023-05-10T15:10:58.523Z,30.45
2023-05-10T15:21:00.524Z,29.73
2023-05-10T15:31:02.414Z,31.11
2023-05-10T15:41:04.554Z,30.16
2023-05-10T15:51:06.762Z,31.25
2023-05-10T16:01:12.502Z,31.61
2023-05-10T16:11:16.703Z,30.48
2023-05-10T16:21:18.843Z,29.82
2023-05-10T16:31:21.008Z,30.49
2023-05-10T16:41:23.246Z,29.38
2023-05-10T16:51:27.995Z,29.75
2023-05-10T17:01:30.028Z,29.35
2023-05-10T17:11:32.714Z,29.04
2023-05-10T17:21:34.940Z,29.96
2023-05-10T17:31:38.028Z,30.26
2023-05-10T17:41:44.290Z,30.31
2023-05-10T17:51:51.411Z,30.31
2023-05-10T18:01:53.498Z,31.91
2023-05-10T18:11:55.636Z,33.21
2023-05-10T18:22:00.559Z,33.72
2023-05-10T18:32:02.871Z,34.90
2023-05-10T18:42:08.985Z,35.59
2023-05-10T18:52:12.047Z,36.95
2023-05-10T19:02:14.408Z,37.88
2023-05-10T19:12:16.818Z,37.86
2023-05-10T19:22:35.361Z,37.87
2023-05-10T19:32:44.466Z,37.53
2023-05-10T19:42:58.866Z,38.44
2023-05-10T19:53:01.975Z,38.16
2023-05-10T20:03:11.471Z,38.42
2023-05-10T20:13:14.558Z,38.32
2023-05-10T20:23:17.085Z,40.03
2023-05-10T20:33:33.863Z,40.42
2023-05-10T20:43:36.366Z,41.06
2023-05-10T20:53:39.322Z,41.91
2023-05-10T21:03:44.648Z,43.39
2023-05-10T21:13:48.352Z,44.04
2023-05-10T21:23:51.357Z,44.69
2023-05-10T21:34:01.296Z,44.65
2023-05-10T21:44:06.520Z,45.65
2023-05-10T21:54:19.484Z,46.90
2023-05-10T22:04:28.795Z,47.02
2023-05-10T22:14:31.110Z,46.76
2023-05-10T22:24:33.101Z,48.50
2023-05-10T22:34:35.987Z,48.66
2023-05-10T22:44:38.945Z,48.54
2023-05-10T22:54:40.820Z,49.05
2023-05-10T23:04:43.801Z,50.04
2023-05-10T23:14:57.183Z,49.65
2023-05-10T23:25:09.829Z,50.71
2023-05-10T23:35:22.744Z,50.91
2023-05-10T23:45:27.683Z,50.12
2023-05-10T23:55:29.687Z,50.26
